Time;durP1;ratioP1;P1;durP2;ratioP2;P2;SDS_P1;SDS_P2;PMS_P1;PMS_P2;Temp;Humidity;BMP_temperature;BMP_pressure;BME280_temperature;BME280_humidity;BME280_pressure;Samples;Min_cycle;Max_cycle;Signal;HPM_P1;HPM_P2
2023/11/11 00:01:46;;;;;;;3.22;0.63;;;;;;;7.80;100.00;98917.56;5190234;28;20110;-77
2023/11/11 00:04:17;;;;;;;3.22;0.95;;;;;;;7.77;100.00;98922.09;5194150;28;20447;-78
2023/11/11 00:06:47;;;;;;;5.22;0.85;;;;;;;7.77;100.00;98922.09;5191927;28;20076;-77
2023/11/11 00:09:20;;;;;;;2.45;0.88;;;;;;;7.84;100.00;98924.28;5193123;28;20068;-78
2023/11/11 00:11:51;;;;;;;2.58;0.88;;;;;;;7.81;100.00;98911.47;5189132;28;20476;-77
2023/11/11 00:14:21;;;;;;;2.03;0.75;;;;;;;7.78;100.00;98913.38;5190044;28;20079;-77
2023/11/11 00:16:53;;;;;;;1.63;0.70;;;;;;;7.88;100.00;98912.00;5190303;28;20025;-77
2023/11/11 00:19:24;;;;;;;6.28;0.90;;;;;;;7.82;100.00;98910.53;5191336;28;20120;-77
2023/11/11 00:21:54;;;;;;;3.78;0.80;;;;;;;7.81;100.00;98911.47;5191624;28;20452;-76
2023/11/11 00:24:25;;;;;;;2.22;0.60;;;;;;;7.84;100.00;98911.28;5192028;28;20259;-75
2023/11/11 00:26:55;;;;;;;5.75;0.80;;;;;;;7.90;100.00;98899.75;5191726;28;20049;-77
2023/11/11 00:29:25;;;;;;;5.38;1.10;;;;;;;8.03;100.00;98899.03;5192067;28;20453;-77
2023/11/11 00:31:56;;;;;;;4.90;0.70;;;;;;;8.12;100.00;98903.75;5193109;28;20056;-78
2023/11/11 00:34:26;;;;;;;3.75;0.80;;;;;;;8.12;100.00;98898.56;5192725;28;20024;-77
2023/11/11 00:36:57;;;;;;;2.85;0.75;;;;;;;8.20;100.00;98898.19;5187544;28;20021;-77
2023/11/11 00:39:33;;;;;;;5.38;0.70;;;;;;;8.27;100.00;98891.72;5191683;28;20025;-76
2023/11/11 00:42:03;;;;;;;3.47;0.75;;;;;;;8.20;100.00;98909.41;5185142;28;20403;-77
2023/11/11 00:44:35;;;;;;;1.85;0.45;;;;;;;8.09;100.00;98901.31;5191561;28;20032;-78
2023/11/11 00:47:06;;;;;;;5.05;0.73;;;;;;;8.09;100.00;98895.25;5192823;28;20153;-78
2023/11/11 00:49:36;;;;;;;6.18;0.95;;;;;;;8.15;100.00;98895.78;5188604;28;20055;-78
2023/11/11 00:52:07;;;;;;;2.95;0.60;;;;;;;8.12;100.00;98897.69;5187049;28;20056;-77
2023/11/11 00:54:38;;;;;;;2.65;0.70;;;;;;;8.07;100.00;98907.50;5190745;28;20025;-78
2023/11/11 00:57:08;;;;;;;4.40;0.82;;;;;;;8.17;100.00;98901.75;5190806;28;20566;-77
2023/11/11 00:59:39;;;;;;;7.15;0.98;;;;;;;8.27;100.00;98903.00;5191366;28;20059;-78
2023/11/11 01:02:09;;;;;;;3.97;0.80;;;;;;;8.29;100.00;98903.75;5188162;28;20413;-78
2023/11/11 01:04:40;;;;;;;3.03;0.80;;;;;;;8.32;100.00;98905.31;5192314;28;20033;-77
2023/11/11 01:07:10;;;;;;;4.53;0.80;;;;;;;8.13;100.00;98909.78;5192500;28;20541;-78
2023/11/11 01:09:41;;;;;;;4.97;0.95;;;;;;;8.01;100.00;98905.25;5191734;28;20112;-78
2023/11/11 01:12:12;;;;;;;5.13;0.90;;;;;;;8.06;100.00;98904.06;5189275;28;20475;-78
2023/11/11 01:14:42;;;;;;;5.45;0.80;;;;;;;8.12;100.00;98908.97;5188948;28;20132;-78
2023/11/11 01:17:13;;;;;;;4.10;0.90;;;;;;;8.07;100.00;98905.72;5188064;28;20223;-77
2023/11/11 01:19:43;;;;;;;3.72;0.70;;;;;;;8.10;100.00;98897.81;5187716;28;20044;-77
2023/11/11 01:22:13;;;;;;;7.10;0.98;;;;;;;8.07;100.00;98895.34;5191572;28;20038;-78
2023/11/11 01:24:45;;;;;;;4.20;0.85;;;;;;;8.04;100.00;98894.66;5190074;28;20036;-77
2023/11/11 01:27:16;;;;;;;4.63;0.73;;;;;;;8.11;100.00;98891.66;5190707;28;20531;-77
2023/11/11 01:29:47;;;;;;;2.55;0.68;;;;;;;8.09;100.00;98887.47;5175334;28;20167;-77
2023/11/11 01:32:17;;;;;;;4.28;1.00;;;;;;;7.96;100.00;98892.47;5187755;28;20048;-77
2023/11/11 01:34:47;;;;;;;4.75;0.88;;;;;;;8.00;100.00;98887.94;5190926;28;20034;-77
2023/11/11 01:37:18;;;;;;;2.92;1.05;;;;;;;7.98;100.00;98885.44;5209180;23;20116;-70
2023/11/11 01:39:49;;;;;;;5.07;0.82;;;;;;;7.99;100.00;98879.31;5189028;28;20354;-69
2023/11/11 01:42:19;;;;;;;3.15;0.90;;;;;;;8.03;100.00;98878.22;5187468;28;20045;-70
2023/11/11 01:44:49;;;;;;;5.40;0.70;;;;;;;8.09;100.00;98872.72;5188362;28;20426;-70
2023/11/11 01:47:20;;;;;;;4.78;1.08;;;;;;;8.10;100.00;98870.94;5190635;28;20029;-70
2023/11/11 01:49:51;;;;;;;3.53;0.73;;;;;;;8.30;100.00;98869.00;5186877;28;20034;-70
2023/11/11 01:52:21;;;;;;;2.90;0.90;;;;;;;8.25;100.00;98865.78;5191916;28;20053;-70
2023/11/11 01:54:51;;;;;;;1.95;0.75;;;;;;;8.13;100.00;98871.63;5192053;28;20105;-71
2023/11/11 01:57:22;;;;;;;4.55;0.88;;;;;;;8.09;100.00;98877.91;5191453;28;20495;-70
2023/11/11 01:59:54;;;;;;;3.05;0.70;;;;;;;7.96;100.00;98878.59;5190823;28;20891;-70
2023/11/11 02:02:24;;;;;;;5.53;0.85;;;;;;;7.92;100.00;98871.91;5187222;28;20508;-70
2023/11/11 02:04:55;;;;;;;2.67;0.70;;;;;;;7.87;100.00;98877.31;5191401;28;20033;-70
2023/11/11 02:07:25;;;;;;;3.90;0.70;;;;;;;7.81;100.00;98876.81;5190269;28;20022;-70
2023/11/11 02:09:55;;;;;;;3.22;0.80;;;;;;;7.88;100.00;98878.19;5190293;28;20032;-70
2023/11/11 02:12:27;;;;;;;5.28;1.00;;;;;;;7.88;100.00;98879.00;5188685;28;20059;-70
2023/11/11 02:14:59;;;;;;;2.97;0.77;;;;;;;7.99;100.00;98874.09;5191024;28;20037;-70
2023/11/11 02:17:29;;;;;;;5.38;1.00;;;;;;;7.98;100.00;98876.75;5186698;28;20021;-70
2023/11/11 02:20:00;;;;;;;4.32;0.88;;;;;;;8.06;100.00;98878.03;5192036;28;20102;-70
2023/11/11 02:22:30;;;;;;;3.30;0.70;;;;;;;8.05;100.00;98873.75;5188598;28;20284;-70
2023/11/11 02:25:02;;;;;;;3.10;0.75;;;;;;;8.05;100.00;98868.56;5188212;28;20040;-70
2023/11/11 02:27:33;;;;;;;7.07;0.93;;;;;;;8.18;100.00;98869.63;5191946;28;20025;-70
2023/11/11 02:30:04;;;;;;;4.50;1.00;;;;;;;8.14;100.00;98868.09;5185400;28;20044;-70
2023/11/11 02:32:34;;;;;;;5.40;1.00;;;;;;;8.07;100.00;98874.53;5181733;28;20483;-70
2023/11/11 02:35:05;;;;;;;3.30;0.70;;;;;;;8.10;100.00;98869.19;5194738;28;20029;-70
2023/11/11 02:37:35;;;;;;;3.03;0.77;;;;;;;8.07;100.00;98869.31;5192643;28;20460;-70
2023/11/11 02:40:08;;;;;;;4.50;0.85;;;;;;;8.08;100.00;98873.59;5196333;28;20574;-71
2023/11/11 02:42:40;;;;;;;3.33;0.73;;;;;;;8.03;100.00;98878.22;5190516;28;20025;-70
2023/11/11 02:45:11;;;;;;;4.50;0.85;;;;;;;7.97;100.00;98872.50;5188661;28;20033;-70
2023/11/11 02:47:41;;;;;;;4.78;1.00;;;;;;;7.98;100.00;98874.16;5195035;28;20475;-70
2023/11/11 02:50:11;;;;;;;5.32;0.85;;;;;;;7.97;100.00;98873.34;5188113;28;20049;-70
2023/11/11 02:52:42;;;;;;;4.70;0.77;;;;;;;7.92;100.00;98874.50;5188302;28;20497;-70
2023/11/11 02:55:12;;;;;;;5.13;1.00;;;;;;;7.90;100.00;98877.16;5189424;28;20289;-71
2023/11/11 02:57:43;;;;;;;2.83;1.02;;;;;;;7.94;100.00;98873.50;5188887;28;20418;-70
2023/11/11 03:00:13;;;;;;;3.35;0.98;;;;;;;7.95;100.00;98875.19;5187350;28;20037;-71
2023/11/11 03:02:43;;;;;;;3.15;0.80;;;;;;;7.97;100.00;98869.88;5186851;28;20060;-70
2023/11/11 03:05:14;;;;;;;5.50;1.00;;;;;;;7.91;100.00;98870.22;5188867;28;20048;-71
2023/11/11 03:07:44;;;;;;;4.75;0.77;;;;;;;7.98;100.00;98872.41;5188244;28;20459;-70
2023/11/11 03:10:15;;;;;;;5.90;0.90;;;;;;;7.90;100.00;98871.97;5188693;28;20026;-70
2023/11/11 03:12:45;;;;;;;3.90;0.95;;;;;;;7.77;100.00;98862.28;5188383;28;20075;-70
2023/11/11 03:15:15;;;;;;;2.97;0.70;;;;;;;7.75;100.00;98874.53;5189654;28;20529;-70
2023/11/11 03:17:46;;;;;;;7.60;1.15;;;;;;;7.70;100.00;98859.16;5187409;28;20071;-70
2023/11/11 03:20:16;;;;;;;3.05;0.98;;;;;;;7.72;100.00;98857.31;5189023;28;20618;-70
2023/11/11 03:22:46;;;;;;;4.35;0.73;;;;;;;7.78;100.00;98862.22;5188562;28;20071;-70
2023/11/11 03:25:18;;;;;;;2.70;0.82;;;;;;;7.71;100.00;98863.44;5188539;28;20034;-70
2023/11/11 03:27:48;;;;;;;4.07;0.80;;;;;;;7.73;100.00;98864.19;5185736;28;20024;-71
2023/11/11 03:30:19;;;;;;;3.83;0.90;;;;;;;7.76;100.00;98860.59;5188702;28;20026;-70
2023/11/11 03:32:49;;;;;;;4.00;0.70;;;;;;;7.74;100.00;98858.06;5186704;28;20100;-70
2023/11/11 03:35:19;;;;;;;2.58;0.88;;;;;;;7.70;100.00;98853.13;5189435;28;20483;-70
2023/11/11 03:37:50;;;;;;;4.25;0.85;;;;;;;7.74;100.00;98860.66;5188009;28;20057;-71
2023/11/11 03:40:20;;;;;;;1.85;0.70;;;;;;;7.84;100.00;98848.88;5189808;28;20480;-70
2023/11/11 03:42:50;;;;;;;3.75;0.85;;;;;;;7.90;100.00;98850.34;5188635;28;20096;-71
2023/11/11 03:45:21;;;;;;;3.13;0.85;;;;;;;7.83;100.00;98852.41;5190441;28;20061;-71
2023/11/11 03:47:52;;;;;;;5.93;1.08;;;;;;;7.79;100.00;98853.50;5187421;28;20044;-70
2023/11/11 03:50:22;;;;;;;4.63;1.00;;;;;;;7.78;100.00;98850.97;5190937;28;20109;-71
2023/11/11 03:52:53;;;;;;;3.97;1.02;;;;;;;7.81;100.00;98845.59;5188539;28;20064;-70
2023/11/11 03:55:23;;;;;;;4.82;1.20;;;;;;;7.81;100.00;98843.84;5191475;28;20449;-71
2023/11/11 03:57:53;;;;;;;5.00;1.30;;;;;;;7.89;100.00;98846.88;5189166;28;20022;-71
2023/11/11 04:00:24;;;;;;;4.18;0.85;;;;;;;8.01;100.00;98837.63;5190742;28;20493;-70
2023/11/11 04:02:54;;;;;;;3.65;0.98;;;;;;;7.92;100.00;98851.94;5189757;28;20032;-71
2023/11/11 04:05:24;;;;;;;7.03;1.10;;;;;;;7.96;100.00;98850.84;5188697;28;20577;-70
2023/11/11 04:07:55;;;;;;;5.88;0.90;;;;;;;8.09;100.00;98845.84;5190132;28;20629;-71
2023/11/11 04:10:25;;;;;;;4.28;1.00;;;;;;;8.05;100.00;98850.34;5189903;28;20025;-70
2023/11/11 04:13:00;;;;;;;3.83;1.10;;;;;;;8.20;100.00;98843.56;5189825;28;20462;-71
2023/11/11 04:15:31;;;;;;;4.07;0.80;;;;;;;8.16;100.00;98845.44;5191508;28;20045;-70
2023/11/11 04:18:02;;;;;;;7.22;1.10;;;;;;;8.16;100.00;98842.84;5185069;28;20036;-71
2023/11/11 04:20:32;;;;;;;3.08;1.00;;;;;;;8.11;100.00;98844.00;5191066;28;20034;-71
2023/11/11 04:23:02;;;;;;;3.50;1.10;;;;;;;8.15;100.00;98842.91;5189254;28;20498;-71
2023/11/11 04:25:33;;;;;;;3.80;1.00;;;;;;;8.07;100.00;98848.50;5191507;28;20079;-71
2023/11/11 04:28:03;;;;;;;6.25;1.10;;;;;;;8.08;100.00;98846.75;5185140;28;20548;-71
2023/11/11 04:30:34;;;;;;;3.53;1.02;;;;;;;8.07;100.00;98848.50;5191056;28;20021;-71
2023/11/11 04:33:04;;;;;;;4.68;1.05;;;;;;;8.04;100.00;98850.47;5189249;28;20041;-71
2023/11/11 04:35:35;;;;;;;1.92;0.80;;;;;;;8.00;100.00;98847.16;5191838;28;20127;-71
2023/11/11 04:38:07;;;;;;;3.72;0.95;;;;;;;8.06;100.00;98859.84;5189690;28;20427;-71
2023/11/11 04:40:38;;;;;;;10.52;1.00;;;;;;;7.94;100.00;98860.50;5191161;28;20029;-70
2023/11/11 04:43:10;;;;;;;7.32;1.05;;;;;;;7.90;100.00;98856.34;5190119;28;20372;-71
2023/11/11 04:45:41;;;;;;;5.50;1.00;;;;;;;7.90;100.00;98861.56;5189170;28;20048;-71
2023/11/11 04:48:11;;;;;;;5.57;1.02;;;;;;;7.90;100.00;98856.34;5189908;28;20513;-71
2023/11/11 04:50:41;;;;;;;1.98;0.80;;;;;;;7.94;100.00;98863.09;5189209;28;20122;-71
2023/11/11 04:53:12;;;;;;;3.85;1.00;;;;;;;7.95;100.00;98854.38;5188157;28;20530;-71
2023/11/11 04:55:42;;;;;;;5.95;1.00;;;;;;;8.01;100.00;98863.63;5192062;28;20120;-71
2023/11/11 04:58:12;;;;;;;8.38;1.20;;;;;;;8.03;100.00;98869.59;5186463;28;20021;-71
2023/11/11 05:00:44;;;;;;;4.28;1.15;;;;;;;8.04;100.00;98859.09;5190608;28;21320;-71
2023/11/11 05:03:16;;;;;;;2.03;0.88;;;;;;;8.23;100.00;98859.81;5189771;28;20030;-71
2023/11/11 05:05:47;;;;;;;4.45;0.80;;;;;;;8.10;100.00;98874.38;5191631;28;20029;-71
2023/11/11 05:08:17;;;;;;;4.88;1.35;;;;;;;8.12;100.00;98871.69;5190541;28;20475;-71
2023/11/11 05:10:47;;;;;;;4.32;0.90;;;;;;;8.05;100.00;98865.13;5189254;28;20124;-71
2023/11/11 05:13:19;;;;;;;3.33;1.00;;;;;;;8.00;100.00;98867.13;5191258;28;20499;-71
2023/11/11 05:15:59;;;;;;;2.30;1.05;;;;;;;8.08;100.00;98883.19;5189044;28;20104;-70
2023/11/11 05:18:29;;;;;;;4.45;0.98;;;;;;;8.03;100.00;98878.22;5191003;28;20026;-71
2023/11/11 05:21:01;;;;;;;4.88;1.48;;;;;;;8.04;100.00;98885.09;5190375;28;20052;-71
2023/11/11 05:23:31;;;;;;;4.45;1.20;;;;;;;7.97;100.00;98886.34;5191251;28;20088;-71
2023/11/11 05:26:01;;;;;;;7.53;1.40;;;;;;;7.91;100.00;98885.81;5190979;28;20029;-71
2023/11/11 05:28:32;;;;;;;5.85;1.00;;;;;;;7.88;100.00;98896.38;5188245;28;20155;-71
2023/11/11 05:31:03;;;;;;;4.68;0.90;;;;;;;7.96;100.00;98897.66;5190934;28;20040;-71
2023/11/11 05:33:33;;;;;;;6.28;1.88;;;;;;;7.98;100.00;98901.03;5183577;28;20495;-71
2023/11/11 05:36:08;;;;;;;2.20;0.90;;;;;;;8.02;100.00;98912.94;5191565;28;20064;-71
2023/11/11 05:38:40;;;;;;;7.15;1.05;;;;;;;8.01;100.00;98920.84;5192284;28;20072;-71
2023/11/11 05:41:10;;;;;;;4.88;0.90;;;;;;;8.18;100.00;98915.66;5190445;28;20089;-71
2023/11/11 05:43:41;;;;;;;5.65;1.20;;;;;;;8.03;100.00;98919.00;5192000;28;20029;-71
2023/11/11 05:46:11;;;;;;;3.70;1.20;;;;;;;8.06;100.00;98924.88;5191153;28;20126;-71
2023/11/11 05:48:45;;;;;;;4.22;0.90;;;;;;;8.11;100.00;98933.28;5192529;28;20523;-71
2023/11/11 05:51:15;;;;;;;3.75;0.90;;;;;;;8.15;100.00;98933.97;5191836;28;20049;-71
2023/11/11 05:53:45;;;;;;;3.38;0.93;;;;;;;8.05;100.00;98932.78;5191293;28;20073;-71
2023/11/11 05:56:16;;;;;;;6.70;1.13;;;;;;;7.97;100.00;98940.97;5191225;28;20026;-71
2023/11/11 05:58:48;;;;;;;4.82;1.23;;;;;;;7.99;100.00;98948.66;5189842;28;20036;-71
2023/11/11 06:01:20;;;;;;;5.70;1.40;;;;;;;7.98;100.00;98957.41;5191101;28;20045;-71
2023/11/11 06:03:50;;;;;;;4.50;1.00;;;;;;;8.02;100.00;98959.78;5186882;28;20021;-71
2023/11/11 06:06:21;;;;;;;5.22;1.00;;;;;;;7.94;100.00;98966.28;5191901;28;20526;-71
2023/11/11 06:08:51;;;;;;;5.57;1.02;;;;;;;7.89;100.00;98957.88;5185472;28;20428;-71
2023/11/11 06:11:21;;;;;;;6.00;1.33;;;;;;;7.91;100.00;98966.44;5190981;28;20018;-71
2023/11/11 06:13:53;;;;;;;4.20;0.82;;;;;;;7.95;100.00;98973.16;5192901;28;20076;-71
2023/11/11 06:16:23;;;;;;;5.22;1.10;;;;;;;7.99;100.00;98980.75;5175941;28;20030;-71
2023/11/11 06:18:54;;;;;;;8.13;1.50;;;;;;;8.12;100.00;98973.16;5190363;28;20037;-71
2023/11/11 06:21:24;;;;;;;2.30;0.90;;;;;;;8.28;100.00;98972.31;5190943;28;20025;-71
2023/11/11 06:23:55;;;;;;;3.85;1.10;;;;;;;8.19;100.00;98974.56;5193322;28;20029;-71
2023/11/11 06:26:25;;;;;;;3.58;0.70;;;;;;;8.23;100.00;98976.91;5191373;28;20021;-71
2023/11/11 06:28:56;;;;;;;3.97;0.65;;;;;;;8.23;100.00;98976.09;5192860;28;20487;-71
2023/11/11 06:31:27;;;;;;;2.58;0.57;;;;;;;8.13;100.00;98983.50;5189197;28;20525;-71
2023/11/11 06:33:58;;;;;;;1.45;0.70;;;;;;;8.04;100.00;98996.13;5192034;28;20029;-71
2023/11/11 06:36:29;;;;;;;5.90;0.82;;;;;;;8.10;100.00;98999.25;5190285;28;20079;-71
2023/11/11 06:38:59;;;;;;;3.15;0.85;;;;;;;8.12;100.00;99000.00;5188922;28;20029;-71
2023/11/11 06:41:29;;;;;;;3.17;0.55;;;;;;;8.05;100.00;99009.03;5188858;28;20033;-71
2023/11/11 06:43:59;;;;;;;2.42;0.63;;;;;;;8.00;100.00;99013.63;5186747;28;20124;-71
2023/11/11 06:46:30;;;;;;;2.30;0.90;;;;;;;7.95;100.00;99014.78;5190527;28;20491;-71
2023/11/11 06:49:00;;;;;;;4.13;1.10;;;;;;;7.92;100.00;99026.19;5192027;28;20036;-71
2023/11/11 06:51:31;;;;;;;1.73;0.80;;;;;;;7.96;100.00;99027.72;5189317;28;20445;-71
2023/11/11 06:54:01;;;;;;;2.15;0.80;;;;;;;7.78;100.00;99033.81;5189108;28;20033;-70
2023/11/11 06:56:31;;;;;;;3.75;0.95;;;;;;;7.88;100.00;99037.63;5189604;28;20475;-71
2023/11/11 06:59:07;;;;;;;1.67;0.68;;;;;;;7.66;100.00;99050.00;5191346;28;20029;-71
2023/11/11 07:01:39;;;;;;;1.38;0.70;;;;;;;7.79;100.00;99056.31;5184601;28;20429;-71
2023/11/11 07:04:10;;;;;;;1.50;0.60;;;;;;;7.71;100.00;99050.63;5192096;28;20140;-71
2023/11/11 07:06:40;;;;;;;1.92;0.50;;;;;;;7.57;100.00;99054.81;5193079;28;20033;-71
2023/11/11 07:09:12;;;;;;;4.63;0.50;;;;;;;7.53;100.00;99048.91;5192314;28;20045;-71
2023/11/11 07:11:42;;;;;;;1.13;0.50;;;;;;;7.50;100.00;99043.84;5191715;28;20277;-71
2023/11/11 07:14:13;;;;;;;1.25;0.40;;;;;;;7.49;100.00;99051.75;5191819;28;20037;-71
2023/11/11 07:16:43;;;;;;;0.82;0.25;;;;;;;7.49;100.00;99056.94;5186857;28;20309;-71
2023/11/11 07:19:14;;;;;;;1.45;0.73;;;;;;;7.62;100.00;99064.06;5191655;28;20118;-71
2023/11/11 07:21:44;;;;;;;2.33;1.05;;;;;;;7.56;100.00;99068.72;5195166;28;20028;-71
2023/11/11 07:24:14;;;;;;;4.32;1.40;;;;;;;7.73;100.00;99066.97;5195925;28;20053;-71
2023/11/11 07:26:44;;;;;;;1.90;1.00;;;;;;;7.67;100.00;99069.88;5197441;28;20399;-71
2023/11/11 07:29:15;;;;;;;3.75;1.50;;;;;;;7.68;100.00;99078.53;5192730;28;20495;-71
2023/11/11 07:31:47;;;;;;;11.00;4.63;;;;;;;7.63;100.00;99076.16;5196154;28;20112;-71
2023/11/11 07:34:17;;;;;;;6.95;3.10;;;;;;;7.59;100.00;99090.22;5193108;28;20033;-71
2023/11/11 07:36:47;;;;;;;2.30;0.70;;;;;;;7.65;100.00;99091.66;5191442;28;20619;-71
2023/11/11 07:39:19;;;;;;;1.00;0.50;;;;;;;7.66;100.00;99090.78;5225231;23;20063;-78
2023/11/11 07:41:50;;;;;;;1.67;0.55;;;;;;;7.56;100.00;99097.31;5205398;28;20096;-77
2023/11/11 07:44:22;;;;;;;0.80;0.30;;;;;;;7.44;100.00;99111.72;5210067;28;20036;-77
2023/11/11 07:46:53;;;;;;;1.58;0.52;;;;;;;7.59;100.00;99110.16;5208485;28;20769;-77
2023/11/11 07:49:23;;;;;;;0.93;0.40;;;;;;;7.61;100.00;99126.53;5204082;28;20034;-78
2023/11/11 07:51:53;;;;;;;1.10;0.47;;;;;;;7.58;100.00;99134.47;5198847;28;20025;-78
2023/11/11 07:54:24;;;;;;;1.90;0.60;;;;;;;7.65;100.00;99130.66;5201629;28;20471;-75
2023/11/11 07:56:55;;;;;;;1.20;0.60;;;;;;;7.57;100.00;99132.78;5202471;28;20033;-77
2023/11/11 07:59:26;;;;;;;1.95;0.65;;;;;;;7.56;100.00;99133.69;5200069;28;20025;-76
2023/11/11 08:01:59;;;;;;;2.05;0.50;;;;;;;7.76;100.00;99131.00;5200863;28;20022;-77
2023/11/11 08:04:29;;;;;;;1.30;0.55;;;;;;;7.64;100.00;99136.78;5202422;28;20491;-77
2023/11/11 08:07:00;;;;;;;0.65;0.40;;;;;;;7.67;100.00;99129.69;5201760;28;20032;-78
2023/11/11 08:09:33;;;;;;;0.93;0.47;;;;;;;7.60;100.00;99137.84;5203141;28;20030;-77
2023/11/11 08:12:04;;;;;;;0.73;0.38;;;;;;;7.60;100.00;99138.69;5203045;28;20032;-78
2023/11/11 08:14:35;;;;;;;0.73;0.30;;;;;;;7.64;100.00;99140.22;5202543;28;20068;-76
2023/11/11 08:17:05;;;;;;;0.70;0.50;;;;;;;7.49;100.00;99147.91;5202534;28;20026;-78
2023/11/11 08:19:36;;;;;;;1.67;0.40;;;;;;;7.48;100.00;99151.38;5200431;28;20017;-77
2023/11/11 08:22:07;;;;;;;1.70;0.50;;;;;;;7.48;100.00;99149.66;5201522;28;20025;-77
2023/11/11 08:24:38;;;;;;;0.90;0.30;;;;;;;7.40;100.00;99150.91;5201463;28;20368;-78
2023/11/11 08:27:08;;;;;;;1.35;0.55;;;;;;;7.49;100.00;99151.34;5203123;28;20071;-77
2023/11/11 08:29:39;;;;;;;0.50;0.40;;;;;;;7.46;100.00;99153.22;5201630;28;20021;-78
2023/11/11 08:32:09;;;;;;;1.17;0.50;;;;;;;7.51;100.00;99152.09;5200259;28;20029;-77
2023/11/11 08:34:39;;;;;;;1.05;0.50;;;;;;;7.66;100.00;99153.16;5203286;28;20036;-77
2023/11/11 08:37:10;;;;;;;1.63;0.50;;;;;;;7.65;100.00;99152.31;5202514;28;20505;-77
2023/11/11 08:39:40;;;;;;;1.15;0.50;;;;;;;7.66;100.00;99151.41;5203135;28;20033;-78
2023/11/11 08:42:10;;;;;;;0.93;0.60;;;;;;;7.53;100.00;99158.06;5201271;28;20483;-77
2023/11/11 08:44:41;;;;;;;1.58;0.93;;;;;;;7.40;100.00;99166.50;5204315;28;20386;-77
2023/11/11 08:47:12;;;;;;;14.45;2.90;;;;;;;7.62;100.00;99156.81;5202116;28;20024;-78
2023/11/11 08:49:43;;;;;;;8.60;2.53;;;;;;;7.69;100.00;99160.81;5200509;28;20148;-78
2023/11/11 08:52:13;;;;;;;10.32;3.55;;;;;;;7.54;100.00;99164.94;5203661;28;20116;-77
2023/11/11 08:54:43;;;;;;;3.55;1.20;;;;;;;7.58;100.00;99166.53;5200925;28;20048;-77
2023/11/11 08:57:13;;;;;;;4.72;0.90;;;;;;;7.66;100.00;99166.16;5202798;28;20483;-77
2023/11/11 08:59:44;;;;;;;3.28;1.00;;;;;;;7.71;100.00;99159.00;5202201;28;20028;-78
2023/11/11 09:02:14;;;;;;;2.35;1.13;;;;;;;7.65;100.00;99165.31;5202761;28;20063;-78
2023/11/11 09:04:45;;;;;;;3.97;1.23;;;;;;;7.73;100.00;99170.97;5202689;28;20033;-76
2023/11/11 09:07:16;;;;;;;1.80;1.20;;;;;;;7.74;100.00;99174.44;5203315;28;20498;-77
2023/11/11 09:09:47;;;;;;;4.07;1.73;;;;;;;7.65;100.00;99177.44;5206096;28;20029;-77
2023/11/11 09:12:18;;;;;;;6.28;1.80;;;;;;;7.77;100.00;99184.69;5208010;28;20052;-77
2023/11/11 09:14:48;;;;;;;3.83;1.67;;;;;;;7.94;100.00;99190.81;5204353;28;20052;-77
2023/11/11 09:17:21;;;;;;;2.60;1.60;;;;;;;7.78;100.00;99183.78;5196938;28;20682;-77
2023/11/11 09:19:52;;;;;;;2.75;1.70;;;;;;;7.88;100.00;99185.88;5188434;28;20082;-78
2023/11/11 09:22:22;;;;;;;4.10;1.60;;;;;;;7.89;100.00;99184.97;5197184;28;20502;-77
2023/11/11 09:24:53;;;;;;;4.05;2.30;;;;;;;7.87;100.00;99193.78;5198834;28;20037;-77
2023/11/11 09:27:23;;;;;;;4.63;2.10;;;;;;;8.10;100.00;99191.78;5201129;28;20512;-78
2023/11/11 09:29:54;;;;;;;5.30;2.42;;;;;;;8.15;100.00;99189.78;5198835;28;20056;-77
2023/11/11 09:32:25;;;;;;;7.53;3.00;;;;;;;8.25;100.00;99192.81;5187260;28;20115;-75
2023/11/11 09:34:56;;;;;;;6.10;2.38;;;;;;;8.44;100.00;99191.00;5192745;28;20026;-77
2023/11/11 09:37:26;;;;;;;4.03;2.50;;;;;;;8.40;100.00;99189.47;5195770;28;20055;-77
2023/11/11 09:39:57;;;;;;;4.75;2.70;;;;;;;8.42;100.00;99187.63;5200430;28;20068;-77
2023/11/11 09:42:27;;;;;;;5.78;2.80;;;;;;;8.63;100.00;99184.81;5189030;28;20040;-77
2023/11/11 09:44:58;;;;;;;4.40;2.83;;;;;;;8.71;100.00;99190.47;5199787;28;20380;-78
2023/11/11 09:47:33;;;;;;;7.25;3.38;;;;;;;8.67;100.00;99188.94;5201351;28;20107;-78
2023/11/11 09:50:05;;;;;;;7.43;3.70;;;;;;;8.80;100.00;99197.84;5199484;28;20040;-75
2023/11/11 09:52:38;;;;;;;10.60;3.75;;;;;;;8.80;100.00;99205.66;5200414;28;20611;-77
2023/11/11 09:55:10;;;;;;;6.53;3.42;;;;;;;8.93;100.00;99198.88;5189526;28;20560;-74
2023/11/11 09:57:41;;;;;;;8.32;3.63;;;;;;;9.00;100.00;99202.03;5200260;28;20049;-77
2023/11/11 10:00:13;;;;;;;7.28;3.20;;;;;;;9.13;100.00;99209.16;5197865;28;20078;-77
2023/11/11 10:02:44;;;;;;;8.43;4.28;;;;;;;8.93;100.00;99201.50;5200711;28;20402;-77
2023/11/11 10:05:15;;;;;;;6.70;3.72;;;;;;;8.86;100.00;99205.34;5191198;28;20255;-77
2023/11/11 10:07:46;;;;;;;21.45;9.23;;;;;;;8.78;100.00;99207.50;5200807;28;20021;-78
2023/11/11 10:10:16;;;;;;;11.75;5.13;;;;;;;8.84;100.00;99207.19;5200001;28;20399;-77
2023/11/11 10:12:47;;;;;;;11.88;6.93;;;;;;;8.85;100.00;99201.06;5200760;28;20025;-78
2023/11/11 10:15:17;;;;;;;5.88;2.88;;;;;;;8.77;100.00;99211.03;5195752;28;20045;-77
2023/11/11 10:17:47;;;;;;;5.47;2.50;;;;;;;8.82;100.00;99218.59;5202823;28;20017;-78
2023/11/11 10:20:18;;;;;;;3.88;2.28;;;;;;;8.79;100.00;99209.19;5202175;28;20053;-75
2023/11/11 10:22:48;;;;;;;6.72;3.88;;;;;;;8.69;100.00;99213.16;5200081;28;20252;-77
2023/11/11 10:25:19;;;;;;;3.80;2.08;;;;;;;8.68;100.00;99214.06;5203464;28;20053;-75
2023/11/11 10:27:51;;;;;;;6.63;2.38;;;;;;;8.73;100.00;99214.69;5189158;28;20024;-78
2023/11/11 10:30:26;;;;;;;7.93;2.53;;;;;;;8.78;100.00;99212.72;5201775;28;20585;-77
2023/11/11 10:32:58;;;;;;;4.78;1.77;;;;;;;8.77;100.00;99216.22;5198569;28;20033;-77
2023/11/11 10:35:28;;;;;;;5.32;1.88;;;;;;;8.61;100.00;99215.31;5200180;28;20029;-78
2023/11/11 10:38:00;;;;;;;6.28;2.20;;;;;;;8.68;100.00;99227.09;5193425;28;20642;-78
2023/11/11 10:40:30;;;;;;;8.35;1.83;;;;;;;8.68;100.00;99221.88;5196940;28;20029;-78
2023/11/11 10:43:01;;;;;;;3.67;1.55;;;;;;;8.69;100.00;99223.56;5206141;28;20024;-78
2023/11/11 10:45:32;;;;;;;4.03;1.30;;;;;;;8.75;100.00;99233.66;5196304;28;20045;-77
2023/11/11 10:48:03;;;;;;;4.20;1.50;;;;;;;8.75;100.00;99230.25;5197152;28;20017;-77
2023/11/11 10:50:36;;;;;;;4.95;1.23;;;;;;;8.59;100.00;99222.31;5200446;28;20106;-78
2023/11/11 10:53:07;;;;;;;3.45;0.98;;;;;;;8.63;100.00;99223.88;5197682;28;20045;-75
2023/11/11 10:55:38;;;;;;;4.18;1.25;;;;;;;8.68;100.00;99224.50;5198473;28;20388;-76
2023/11/11 10:58:10;;;;;;;3.35;1.63;;;;;;;8.69;100.00;99235.75;5192726;28;20034;-77
2023/11/11 11:00:42;;;;;;;4.13;1.25;;;;;;;8.63;100.00;99236.91;5205779;28;20072;-76
2023/11/11 11:03:14;;;;;;;5.07;1.77;;;;;;;8.66;100.00;99238.50;5208261;28;20035;-78
2023/11/11 11:06:13;;;;;;;4.20;1.15;;;;;;;8.81;100.00;99243.81;5194761;28;20478;-78
2023/11/11 11:09:14;;;;;;;2.80;1.00;;;;;;;8.75;100.00;99243.25;5204127;28;20573;-76
2023/11/11 11:12:01;;;;;;;2.85;1.27;;;;;;;8.90;100.00;99240.72;5207136;28;20046;-74
2023/11/11 11:14:42;;;;;;;3.10;1.17;;;;;;;8.88;100.00;99244.34;5208894;28;20039;-78
2023/11/11 11:17:12;;;;;;;4.82;1.27;;;;;;;8.87;100.00;99243.50;5215113;28;20044;-76
2023/11/11 11:20:09;;;;;;;3.95;1.08;;;;;;;8.98;100.00;99241.19;5217994;28;20387;-78
2023/11/11 11:22:42;;;;;;;3.35;1.60;;;;;;;9.07;100.00;99239.91;5200978;28;20048;-74
2023/11/11 11:25:34;;;;;;;2.25;1.17;;;;;;;9.18;100.00;99238.41;5201055;28;20052;-76
2023/11/11 11:28:21;;;;;;;3.03;1.13;;;;;;;9.06;100.00;99246.03;5211731;28;20433;-75
2023/11/11 11:30:58;;;;;;;2.88;0.90;;;;;;;9.25;100.00;99245.00;5212825;28;20143;-77
2023/11/11 11:33:30;;;;;;;3.35;1.08;;;;;;;9.05;100.00;99245.16;5209248;28;20048;-78
2023/11/11 11:36:14;;;;;;;1.75;0.95;;;;;;;9.19;100.00;99255.75;5199542;28;20037;-76
2023/11/11 11:38:46;;;;;;;2.67;1.05;;;;;;;9.27;100.00;99248.34;5204634;28;20037;-77
2023/11/11 11:41:21;;;;;;;3.78;1.40;;;;;;;9.34;100.00;99250.56;5199776;28;20584;-77
2023/11/11 11:43:55;;;;;;;3.28;1.00;;;;;;;9.38;100.00;99256.47;5204980;28;20495;-78
2023/11/11 11:46:26;;;;;;;5.07;0.90;;;;;;;9.33;100.00;99263.69;5202495;28;20503;-77
2023/11/11 11:48:57;;;;;;;2.33;0.90;;;;;;;9.20;100.00;99265.25;5193334;28;20187;-74
2023/11/11 11:51:27;;;;;;;3.08;0.93;;;;;;;9.32;100.00;99265.44;5202195;28;20116;-74
2023/11/11 11:53:58;;;;;;;2.65;1.13;;;;;;;9.32;100.00;99255.03;5207560;28;20458;-77